sensor_id;sensor_type;location;lat;lon;timestamp;pressure;altitude;pressure_sealevel;temperature;humidity
24558;BME280;12726;49.148;8.582;2023-03-08T00:00:34;99004.94;;;4.89;57.19
24558;BME280;12726;49.148;8.582;2023-03-08T00:03:19;99006.53;;;4.90;57.13
24558;BME280;12726;49.148;8.582;2023-03-08T00:06:05;98999.59;;;4.89;57.00
24558;BME280;12726;49.148;8.582;2023-03-08T00:08:53;98997.53;;;4.91;57.21
24558;BME280;12726;49.148;8.582;2023-03-08T00:11:39;99001.03;;;4.85;57.25
24558;BME280;12726;49.148;8.582;2023-03-08T00:14:26;98997.75;;;4.77;57.65
24558;BME280;12726;49.148;8.582;2023-03-08T00:17:13;99007.03;;;4.74;57.98
24558;BME280;12726;49.148;8.582;2023-03-08T00:19:58;99008.25;;;4.71;58.52
24558;BME280;12726;49.148;8.582;2023-03-08T00:22:44;99003.13;;;4.70;58.35
24558;BME280;12726;49.148;8.582;2023-03-08T00:25:30;99017.28;;;4.64;58.64
24558;BME280;12726;49.148;8.582;2023-03-08T00:28:15;99020.38;;;4.61;58.73
24558;BME280;12726;49.148;8.582;2023-03-08T00:31:04;99012.16;;;4.56;59.01
24558;BME280;12726;49.148;8.582;2023-03-08T00:33:51;99000.09;;;4.53;59.53
24558;BME280;12726;49.148;8.582;2023-03-08T00:36:37;98998.25;;;4.47;60.25
24558;BME280;12726;49.148;8.582;2023-03-08T00:39:23;98990.88;;;4.43;60.21
24558;BME280;12726;49.148;8.582;2023-03-08T00:42:08;98987.41;;;4.36;60.85
24558;BME280;12726;49.148;8.582;2023-03-08T00:44:54;98984.75;;;4.36;60.56
24558;BME280;12726;49.148;8.582;2023-03-08T00:47:40;98982.91;;;4.29;61.20
24558;BME280;12726;49.148;8.582;2023-03-08T00:50:26;98979.03;;;4.25;61.26
24558;BME280;12726;49.148;8.582;2023-03-08T00:53:11;98976.97;;;4.21;61.48
24558;BME280;12726;49.148;8.582;2023-03-08T00:55:58;98982.72;;;4.18;61.39
24558;BME280;12726;49.148;8.582;2023-03-08T00:58:43;98974.72;;;4.18;61.25
24558;BME280;12726;49.148;8.582;2023-03-08T01:01:29;98975.13;;;4.15;61.14
24558;BME280;12726;49.148;8.582;2023-03-08T01:04:16;98965.28;;;4.15;61.21
24558;BME280;12726;49.148;8.582;2023-03-08T01:07:01;98958.97;;;4.10;61.20
24558;BME280;12726;49.148;8.582;2023-03-08T01:09:46;98959.16;;;4.08;61.07
24558;BME280;12726;49.148;8.582;2023-03-08T01:12:32;98958.97;;;4.03;61.44
24558;BME280;12726;49.148;8.582;2023-03-08T01:15:17;98963.84;;;4.06;61.26
24558;BME280;12726;49.148;8.582;2023-03-08T01:18:03;98959.34;;;4.00;61.26
24558;BME280;12726;49.148;8.582;2023-03-08T01:20:56;98952.38;;;3.99;61.11
24558;BME280;12726;49.148;8.582;2023-03-08T01:23:41;98958.13;;;4.03;61.24
24558;BME280;12726;49.148;8.582;2023-03-08T01:26:27;98958.97;;;3.97;61.37
24558;BME280;12726;49.148;8.582;2023-03-08T01:29:12;98952.38;;;3.99;61.55
24558;BME280;12726;49.148;8.582;2023-03-08T01:31:57;98940.72;;;4.00;60.98
24558;BME280;12726;49.148;8.582;2023-03-08T01:34:43;98944.00;;;3.96;61.00
24558;BME280;12726;49.148;8.582;2023-03-08T01:37:29;98944.00;;;3.96;61.21
24558;BME280;12726;49.148;8.582;2023-03-08T01:40:15;98945.44;;;3.91;61.49
24558;BME280;12726;49.148;8.582;2023-03-08T01:43:10;98941.16;;;3.90;61.51
24558;BME280;12726;49.148;8.582;2023-03-08T01:46:13;98936.03;;;3.82;61.74
24558;BME280;12726;49.148;8.582;2023-03-08T01:49:03;98943.41;;;3.87;61.55
24558;BME280;12726;49.148;8.582;2023-03-08T01:51:52;98943.19;;;3.82;61.97
24558;BME280;12726;49.148;8.582;2023-03-08T01:54:44;98938.47;;;3.77;61.73
24558;BME280;12726;49.148;8.582;2023-03-08T01:57:34;98934.97;;;3.77;61.84
24558;BME280;12726;49.148;8.582;2023-03-08T02:00:22;98934.59;;;3.73;62.11
24558;BME280;12726;49.148;8.582;2023-03-08T02:03:10;98930.28;;;3.66;62.56
24558;BME280;12726;49.148;8.582;2023-03-08T02:05:56;98925.16;;;3.64;62.62
24558;BME280;12726;49.148;8.582;2023-03-08T02:08:42;98921.91;;;3.69;62.05
24558;BME280;12726;49.148;8.582;2023-03-08T02:11:29;98917.41;;;3.69;62.16
24558;BME280;12726;49.148;8.582;2023-03-08T02:14:15;98920.25;;;3.61;62.45
24558;BME280;12726;49.148;8.582;2023-03-08T02:17:00;98914.50;;;3.58;63.08
24558;BME280;12726;49.148;8.582;2023-03-08T02:19:50;98915.53;;;3.57;62.81
24558;BME280;12726;49.148;8.582;2023-03-08T02:22:39;98909.38;;;3.56;63.16
24558;BME280;12726;49.148;8.582;2023-03-08T02:25:25;98908.78;;;3.61;63.08
24558;BME280;12726;49.148;8.582;2023-03-08T02:28:11;98895.06;;;3.64;63.08
24558;BME280;12726;49.148;8.582;2023-03-08T02:30:56;98904.50;;;3.66;62.77
24558;BME280;12726;49.148;8.582;2023-03-08T02:33:42;98891.38;;;3.65;62.73
24558;BME280;12726;49.148;8.582;2023-03-08T02:36:27;98883.19;;;3.73;62.53
24558;BME280;12726;49.148;8.582;2023-03-08T02:39:14;98885.66;;;3.81;62.12
24558;BME280;12726;49.148;8.582;2023-03-08T02:42:00;98885.03;;;3.85;62.20
24558;BME280;12726;49.148;8.582;2023-03-08T02:44:45;98878.88;;;3.78;62.70
24558;BME280;12726;49.148;8.582;2023-03-08T02:47:31;98874.81;;;3.76;62.92
24558;BME280;12726;49.148;8.582;2023-03-08T02:50:17;98876.22;;;3.72;62.75
24558;BME280;12726;49.148;8.582;2023-03-08T02:53:02;98867.03;;;3.81;62.28
24558;BME280;12726;49.148;8.582;2023-03-08T02:55:49;98867.03;;;3.81;62.36
24558;BME280;12726;49.148;8.582;2023-03-08T02:58:34;98867.41;;;3.91;62.33
24558;BME280;12726;49.148;8.582;2023-03-08T03:01:20;98858.38;;;3.92;62.09
24558;BME280;12726;49.148;8.582;2023-03-08T03:04:05;98846.13;;;3.84;62.46
24558;BME280;12726;49.148;8.582;2023-03-08T03:06:51;98840.78;;;3.84;62.45
24558;BME280;12726;49.148;8.582;2023-03-08T03:09:36;98843.44;;;3.91;62.37
24558;BME280;12726;49.148;8.582;2023-03-08T03:12:23;98838.72;;;3.93;62.14
24558;BME280;12726;49.148;8.582;2023-03-08T03:15:09;98838.91;;;3.98;61.98
24558;BME280;12726;49.148;8.582;2023-03-08T03:17:55;98833.59;;;3.91;62.40
24558;BME280;12726;49.148;8.582;2023-03-08T03:20:40;98827.91;;;3.88;62.46
24558;BME280;12726;49.148;8.582;2023-03-08T03:23:28;98831.78;;;3.92;62.25
24558;BME280;12726;49.148;8.582;2023-03-08T03:26:14;98828.13;;;3.80;62.84
24558;BME280;12726;49.148;8.582;2023-03-08T03:29:01;98815.78;;;3.92;62.19
24558;BME280;12726;49.148;8.582;2023-03-08T03:31:47;98812.78;;;3.75;62.69
24558;BME280;12726;49.148;8.582;2023-03-08T03:34:32;98808.66;;;3.79;62.81
24558;BME280;12726;49.148;8.582;2023-03-08T03:37:18;98801.50;;;3.73;63.19
24558;BME280;12726;49.148;8.582;2023-03-08T03:40:04;98803.34;;;3.73;63.17
24558;BME280;12726;49.148;8.582;2023-03-08T03:42:49;98813.19;;;3.72;63.07
24558;BME280;12726;49.148;8.582;2023-03-08T03:45:36;98819.94;;;3.81;62.83
24558;BME280;12726;49.148;8.582;2023-03-08T03:48:21;98804.56;;;3.77;62.56
24558;BME280;12726;49.148;8.582;2023-03-08T03:51:10;98799.66;;;3.80;62.91
24558;BME280;12726;49.148;8.582;2023-03-08T03:53:56;98795.56;;;3.78;62.91
24558;BME280;12726;49.148;8.582;2023-03-08T03:56:42;98791.47;;;3.82;62.46
24558;BME280;12726;49.148;8.582;2023-03-08T03:59:28;98782.81;;;3.93;62.11
24558;BME280;12726;49.148;8.582;2023-03-08T04:02:15;98779.16;;;3.87;62.32
24558;BME280;12726;49.148;8.582;2023-03-08T04:05:00;98790.84;;;3.80;62.81
24558;BME280;12726;49.148;8.582;2023-03-08T04:07:45;98789.78;;;3.94;61.82
24558;BME280;12726;49.148;8.582;2023-03-08T04:10:31;98803.72;;;3.96;61.56
24558;BME280;12726;49.148;8.582;2023-03-08T04:13:16;98799.00;;;4.05;61.34
24558;BME280;12726;49.148;8.582;2023-03-08T04:16:08;98804.31;;;3.98;61.90
24558;BME280;12726;49.148;8.582;2023-03-08T04:18:56;98813.13;;;3.92;62.15
24558;BME280;12726;49.148;8.582;2023-03-08T04:21:42;98795.94;;;3.94;61.65
24558;BME280;12726;49.148;8.582;2023-03-08T04:24:27;98788.13;;;4.00;61.99
24558;BME280;12726;49.148;8.582;2023-03-08T04:27:13;98793.66;;;3.98;61.98
24558;BME280;12726;49.148;8.582;2023-03-08T04:29:58;98786.47;;;4.05;61.61
24558;BME280;12726;49.148;8.582;2023-03-08T04:32:44;98783.81;;;4.12;61.58
24558;BME280;12726;49.148;8.582;2023-03-08T04:35:31;98781.75;;;4.07;61.92
24558;BME280;12726;49.148;8.582;2023-03-08T04:38:17;98780.34;;;4.05;62.21
24558;BME280;12726;49.148;8.582;2023-03-08T04:41:02;98771.34;;;3.99;62.48
24558;BME280;12726;49.148;8.582;2023-03-08T04:43:54;98763.34;;;3.99;62.42
24558;BME280;12726;49.148;8.582;2023-03-08T04:46:39;98753.75;;;3.91;62.67
24558;BME280;12726;49.148;8.582;2023-03-08T04:49:27;98757.44;;;3.84;63.27
24558;BME280;12726;49.148;8.582;2023-03-08T04:52:17;98750.94;;;3.73;63.52
24558;BME280;12726;49.148;8.582;2023-03-08T04:55:02;98754.63;;;3.72;63.46
24558;BME280;12726;49.148;8.582;2023-03-08T04:57:48;98743.59;;;3.69;63.88
24558;BME280;12726;49.148;8.582;2023-03-08T05:00:33;98742.34;;;3.71;63.32
24558;BME280;12726;49.148;8.582;2023-03-08T05:03:19;98745.22;;;3.70;63.38
24558;BME280;12726;49.148;8.582;2023-03-08T05:06:04;98739.50;;;3.66;63.92
24558;BME280;12726;49.148;8.582;2023-03-08T05:08:51;98734.19;;;3.66;64.13
24558;BME280;12726;49.148;8.582;2023-03-08T05:11:37;98741.53;;;3.64;64.39
24558;BME280;12726;49.148;8.582;2023-03-08T05:14:22;98736.44;;;3.56;64.79
24558;BME280;12726;49.148;8.582;2023-03-08T05:17:08;98731.97;;;3.50;65.03
24558;BME280;12726;49.148;8.582;2023-03-08T05:19:53;98727.88;;;3.47;65.29
24558;BME280;12726;49.148;8.582;2023-03-08T05:22:38;98725.22;;;3.47;65.72
24558;BME280;12726;49.148;8.582;2023-03-08T05:25:25;98721.28;;;3.57;64.89
24558;BME280;12726;49.148;8.582;2023-03-08T05:28:10;98728.91;;;3.53;65.35
24558;BME280;12726;49.148;8.582;2023-03-08T05:31:01;98719.88;;;3.61;65.14
24558;BME280;12726;49.148;8.582;2023-03-08T05:33:48;98713.06;;;3.71;64.32
24558;BME280;12726;49.148;8.582;2023-03-08T05:36:34;98720.06;;;3.66;64.63
24558;BME280;12726;49.148;8.582;2023-03-08T05:39:19;98736.81;;;3.73;64.65
24558;BME280;12726;49.148;8.582;2023-03-08T05:42:06;98720.59;;;3.87;63.62
24558;BME280;12726;49.148;8.582;2023-03-08T05:44:52;98727.31;;;3.97;63.67
24558;BME280;12726;49.148;8.582;2023-03-08T05:47:37;98710.88;;;4.06;63.50
24558;BME280;12726;49.148;8.582;2023-03-08T05:50:23;98702.72;;;4.01;63.49
24558;BME280;12726;49.148;8.582;2023-03-08T05:53:08;98707.66;;;3.98;63.93
24558;BME280;12726;49.148;8.582;2023-03-08T05:55:54;98695.75;;;4.00;63.66
24558;BME280;12726;49.148;8.582;2023-03-08T05:58:41;98689.81;;;4.05;63.35
24558;BME280;12726;49.148;8.582;2023-03-08T06:01:27;98682.63;;;4.05;63.13
24558;BME280;12726;49.148;8.582;2023-03-08T06:04:12;98686.09;;;4.06;63.45
24558;BME280;12726;49.148;8.582;2023-03-08T06:06:58;98683.25;;;4.01;63.69
24558;BME280;12726;49.148;8.582;2023-03-08T06:09:43;98690.28;;;3.88;64.78
24558;BME280;12726;49.148;8.582;2023-03-08T06:12:28;98683.56;;;3.79;64.89
24558;BME280;12726;49.148;8.582;2023-03-08T06:15:15;98688.03;;;3.85;65.08
24558;BME280;12726;49.148;8.582;2023-03-08T06:18:01;98677.38;;;3.85;64.89
24558;BME280;12726;49.148;8.582;2023-03-08T06:20:55;98676.41;;;3.80;64.97
24558;BME280;12726;49.148;8.582;2023-03-08T06:23:40;98669.00;;;3.88;64.42
24558;BME280;12726;49.148;8.582;2023-03-08T06:26:26;98667.16;;;3.89;64.84
24558;BME280;12726;49.148;8.582;2023-03-08T06:29:14;98656.50;;;3.89;65.04
24558;BME280;12726;49.148;8.582;2023-03-08T06:32:01;98665.28;;;3.96;64.65
24558;BME280;12726;49.148;8.582;2023-03-08T06:34:46;98667.13;;;3.96;64.38
24558;BME280;12726;49.148;8.582;2023-03-08T06:37:32;98659.09;;;4.02;64.52
24558;BME280;12726;49.148;8.582;2023-03-08T06:40:18;98661.19;;;3.93;65.28
24558;BME280;12726;49.148;8.582;2023-03-08T06:43:03;98659.19;;;3.82;64.53
24558;BME280;12726;49.148;8.582;2023-03-08T06:45:48;98654.31;;;3.73;65.10
24558;BME280;12726;49.148;8.582;2023-03-08T06:48:36;98657.16;;;3.78;65.54
24558;BME280;12726;49.148;8.582;2023-03-08T06:51:21;98640.94;;;3.86;64.61
24558;BME280;12726;49.148;8.582;2023-03-08T06:54:07;98639.97;;;3.74;65.18
24558;BME280;12726;49.148;8.582;2023-03-08T06:56:52;98641.84;;;3.67;65.54
24558;BME280;12726;49.148;8.582;2023-03-08T06:59:37;98640.78;;;3.81;66.23
24558;BME280;12726;49.148;8.582;2023-03-08T07:02:23;98629.50;;;3.79;67.33
24558;BME280;12726;49.148;8.582;2023-03-08T07:05:10;98637.19;;;4.00;68.83
24558;BME280;12726;49.148;8.582;2023-03-08T07:07:55;98628.38;;;4.00;69.68
24558;BME280;12726;49.148;8.582;2023-03-08T07:10:40;98630.38;;;4.11;70.63
24558;BME280;12726;49.148;8.582;2023-03-08T07:13:26;98628.53;;;4.11;71.68
24558;BME280;12726;49.148;8.582;2023-03-08T07:16:12;98624.44;;;4.09;73.49
24558;BME280;12726;49.148;8.582;2023-03-08T07:19:00;98612.59;;;4.05;74.98
24558;BME280;12726;49.148;8.582;2023-03-08T07:21:47;98619.19;;;3.96;77.62
24558;BME280;12726;49.148;8.582;2023-03-08T07:24:32;98614.94;;;3.88;79.33
24558;BME280;12726;49.148;8.582;2023-03-08T07:27:18;98608.22;;;3.79;80.22
24558;BME280;12726;49.148;8.582;2023-03-08T07:30:04;98607.88;;;3.69;81.46
24558;BME280;12726;49.148;8.582;2023-03-08T07:32:51;98608.94;;;3.61;83.28
24558;BME280;12726;49.148;8.582;2023-03-08T07:35:37;98596.88;;;3.52;84.70
24558;BME280;12726;49.148;8.582;2023-03-08T07:38:24;98595.31;;;3.38;85.07
24558;BME280;12726;49.148;8.582;2023-03-08T07:41:09;98595.16;;;3.26;85.52
24558;BME280;12726;49.148;8.582;2023-03-08T07:43:54;98577.56;;;3.25;88.19
24558;BME280;12726;49.148;8.582;2023-03-08T07:46:40;98582.75;;;3.00;89.69
24558;BME280;12726;49.148;8.582;2023-03-08T07:49:25;98577.25;;;2.95;90.50
24558;BME280;12726;49.148;8.582;2023-03-08T07:52:10;98570.13;;;2.76;91.21
24558;BME280;12726;49.148;8.582;2023-03-08T07:54:57;98572.19;;;2.67;92.59
24558;BME280;12726;49.148;8.582;2023-03-08T07:57:42;98566.44;;;2.64;93.78
24558;BME280;12726;49.148;8.582;2023-03-08T08:00:28;98558.72;;;2.43;93.96
24558;BME280;12726;49.148;8.582;2023-03-08T08:03:13;98552.56;;;2.42;95.05
24558;BME280;12726;49.148;8.582;2023-03-08T08:06:00;98539.13;;;2.30;95.10
24558;BME280;12726;49.148;8.582;2023-03-08T08:08:46;98537.28;;;2.11;95.71
24558;BME280;12726;49.148;8.582;2023-03-08T08:11:34;98521.13;;;2.06;96.37
24558;BME280;12726;49.148;8.582;2023-03-08T08:14:20;98519.91;;;1.89;97.82
24558;BME280;12726;49.148;8.582;2023-03-08T08:17:05;98499.91;;;1.86;98.72
24558;BME280;12726;49.148;8.582;2023-03-08T08:19:51;98495.41;;;1.87;98.23
24558;BME280;12726;49.148;8.582;2023-03-08T08:22:36;98501.34;;;1.76;98.53
24558;BME280;12726;49.148;8.582;2023-03-08T08:25:22;98496.44;;;1.92;99.31
24558;BME280;12726;49.148;8.582;2023-03-08T08:28:08;98483.34;;;1.78;99.50
24558;BME280;12726;49.148;8.582;2023-03-08T08:30:55;98506.84;;;1.74;100.00
24558;BME280;12726;49.148;8.582;2023-03-08T08:33:41;98498.88;;;1.74;100.00
24558;BME280;12726;49.148;8.582;2023-03-08T08:36:26;98491.53;;;1.76;100.00
24558;BME280;12726;49.148;8.582;2023-03-08T08:39:11;98477.22;;;1.71;100.00
24558;BME280;12726;49.148;8.582;2023-03-08T08:41:57;98478.06;;;1.71;100.00
24558;BME280;12726;49.148;8.582;2023-03-08T08:44:44;98459.28;;;1.66;100.00
24558;BME280;12726;49.148;8.582;2023-03-08T08:47:29;98440.91;;;1.71;100.00
24558;BME280;12726;49.148;8.582;2023-03-08T08:50:15;98443.78;;;1.83;100.00
24558;BME280;12726;49.148;8.582;2023-03-08T08:53:00;98455.63;;;1.80;100.00
24558;BME280;12726;49.148;8.582;2023-03-08T08:55:46;98435.22;;;1.87;100.00
24558;BME280;12726;49.148;8.582;2023-03-08T08:58:33;98440.72;;;1.92;100.00
24558;BME280;12726;49.148;8.582;2023-03-08T09:01:21;98432.56;;;1.87;100.00
24558;BME280;12726;49.148;8.582;2023-03-08T09:04:06;98422.56;;;1.96;100.00
24558;BME280;12726;49.148;8.582;2023-03-08T09:06:52;98412.13;;;1.94;100.00
24558;BME280;12726;49.148;8.582;2023-03-08T09:09:37;98407.63;;;2.08;100.00
24558;BME280;12726;49.148;8.582;2023-03-08T09:12:22;98403.31;;;2.14;100.00
24558;BME280;12726;49.148;8.582;2023-03-08T09:15:08;98400.06;;;2.18;100.00
24558;BME280;12726;49.148;8.582;2023-03-08T09:17:55;98390.69;;;2.09;100.00
24558;BME280;12726;49.148;8.582;2023-03-08T09:20:41;98401.31;;;1.96;100.00
24558;BME280;12726;49.148;8.582;2023-03-08T09:23:27;98399.88;;;2.00;100.00
24558;BME280;12726;49.148;8.582;2023-03-08T09:26:12;98374.97;;;2.08;100.00
24558;BME280;12726;49.148;8.582;2023-03-08T09:28:59;98369.63;;;2.21;100.00
24558;BME280;12726;49.148;8.582;2023-03-08T09:31:48;98367.19;;;2.19;100.00
24558;BME280;12726;49.148;8.582;2023-03-08T09:34:34;98351.66;;;2.16;100.00
24558;BME280;12726;49.148;8.582;2023-03-08T09:37:20;98351.00;;;2.34;100.00
24558;BME280;12726;49.148;8.582;2023-03-08T09:40:05;98331.81;;;2.32;100.00
24558;BME280;12726;49.148;8.582;2023-03-08T09:42:55;98322.34;;;2.43;100.00
24558;BME280;12726;49.148;8.582;2023-03-08T09:45:43;98324.75;;;2.57;100.00
24558;BME280;12726;49.148;8.582;2023-03-08T09:48:29;98326.53;;;2.63;100.00
24558;BME280;12726;49.148;8.582;2023-03-08T09:51:18;98313.50;;;2.62;100.00
24558;BME280;12726;49.148;8.582;2023-03-08T09:54:08;98314.00;;;2.84;100.00
24558;BME280;12726;49.148;8.582;2023-03-08T09:56:55;98324.25;;;2.73;100.00
24558;BME280;12726;49.148;8.582;2023-03-08T09:59:43;98312.91;;;2.91;100.00
24558;BME280;12726;49.148;8.582;2023-03-08T10:02:36;98317.59;;;2.96;100.00
24558;BME280;12726;49.148;8.582;2023-03-08T10:05:26;98306.47;;;3.05;100.00
24558;BME280;12726;49.148;8.582;2023-03-08T10:08:19;98291.88;;;3.14;100.00
24558;BME280;12726;49.148;8.582;2023-03-08T10:11:13;98291.31;;;3.06;100.00
24558;BME280;12726;49.148;8.582;2023-03-08T10:14:07;98292.28;;;3.18;100.00
24558;BME280;12726;49.148;8.582;2023-03-08T10:17:02;98279.59;;;3.13;100.00
24558;BME280;12726;49.148;8.582;2023-03-08T10:19:52;98249.22;;;3.28;100.00
24558;BME280;12726;49.148;8.582;2023-03-08T10:22:39;98296.00;;;3.35;100.00
24558;BME280;12726;49.148;8.582;2023-03-08T10:25:29;98278.59;;;3.39;100.00
24558;BME280;12726;49.148;8.582;2023-03-08T10:28:18;98279.16;;;3.41;100.00
24558;BME280;12726;49.148;8.582;2023-03-08T10:31:16;98261.81;;;3.39;100.00
24558;BME280;12726;49.148;8.582;2023-03-08T10:34:10;98264.81;;;3.67;100.00
24558;BME280;12726;49.148;8.582;2023-03-08T10:36:59;98244.34;;;3.68;100.00
24558;BME280;12726;49.148;8.582;2023-03-08T10:39:49;98244.41;;;3.61;100.00
24558;BME280;12726;49.148;8.582;2023-03-08T10:42:42;98240.34;;;3.77;100.00
24558;BME280;12726;49.148;8.582;2023-03-08T10:45:31;98241.53;;;3.81;100.00
24558;BME280;12726;49.148;8.582;2023-03-08T10:48:19;98247.66;;;4.00;100.00
24558;BME280;12726;49.148;8.582;2023-03-08T10:51:15;98233.53;;;4.17;100.00
24558;BME280;12726;49.148;8.582;2023-03-08T10:54:18;98233.56;;;4.29;100.00
24558;BME280;12726;49.148;8.582;2023-03-08T10:57:23;98227.41;;;4.47;100.00
24558;BME280;12726;49.148;8.582;2023-03-08T11:00:24;98232.81;;;4.40;100.00
24558;BME280;12726;49.148;8.582;2023-03-08T11:03:16;98218.72;;;4.51;100.00
24558;BME280;12726;49.148;8.582;2023-03-08T11:06:03;98236.84;;;4.61;100.00
24558;BME280;12726;49.148;8.582;2023-03-08T11:08:51;98214.38;;;4.80;100.00
24558;BME280;12726;49.148;8.582;2023-03-08T11:11:40;98222.06;;;4.88;100.00
24558;BME280;12726;49.148;8.582;2023-03-08T11:14:26;98218.59;;;4.99;100.00
24558;BME280;12726;49.148;8.582;2023-03-08T11:17:17;98209.69;;;5.40;100.00
24558;BME280;12726;49.148;8.582;2023-03-08T11:20:15;98214.44;;;5.50;100.00
24558;BME280;12726;49.148;8.582;2023-03-08T11:23:14;98221.16;;;5.64;100.00
24558;BME280;12726;49.148;8.582;2023-03-08T11:26:07;98205.56;;;5.84;100.00
24558;BME280;12726;49.148;8.582;2023-03-08T11:29:05;98204.66;;;5.90;100.00
24558;BME280;12726;49.148;8.582;2023-03-08T11:32:03;98202.91;;;5.84;100.00
24558;BME280;12726;49.148;8.582;2023-03-08T11:34:59;98202.34;;;5.94;100.00
24558;BME280;12726;49.148;8.582;2023-03-08T11:37:52;98190.19;;;6.15;100.00
24558;BME280;12726;49.148;8.582;2023-03-08T11:40:52;98187.16;;;6.40;100.00
24558;BME280;12726;49.148;8.582;2023-03-08T11:43:51;98178.38;;;6.39;100.00
24558;BME280;12726;49.148;8.582;2023-03-08T11:46:51;98188.84;;;6.57;100.00
24558;BME280;12726;49.148;8.582;2023-03-08T11:49:50;98178.72;;;6.59;100.00
24558;BME280;12726;49.148;8.582;2023-03-08T11:52:46;98174.03;;;6.66;100.00
24558;BME280;12726;49.148;8.582;2023-03-08T11:55:45;98177.91;;;6.76;100.00
24558;BME280;12726;49.148;8.582;2023-03-08T11:58:37;98170.38;;;6.89;100.00
24558;BME280;12726;49.148;8.582;2023-03-08T12:01:26;98170.25;;;6.96;100.00
24558;BME280;12726;49.148;8.582;2023-03-08T12:04:16;98177.19;;;7.14;100.00
24558;BME280;12726;49.148;8.582;2023-03-08T12:07:08;98173.44;;;7.31;100.00
24558;BME280;12726;49.148;8.582;2023-03-08T12:10:03;98173.34;;;7.43;100.00
24558;BME280;12726;49.148;8.582;2023-03-08T12:12:54;98171.78;;;7.47;100.00
24558;BME280;12726;49.148;8.582;2023-03-08T12:15:45;98185.44;;;7.45;100.00
24558;BME280;12726;49.148;8.582;2023-03-08T12:18:36;98167.91;;;7.38;100.00
24558;BME280;12726;49.148;8.582;2023-03-08T12:21:31;98176.25;;;7.41;100.00
24558;BME280;12726;49.148;8.582;2023-03-08T12:24:28;98173.28;;;7.38;100.00
24558;BME280;12726;49.148;8.582;2023-03-08T12:27:24;98177.63;;;7.44;100.00
24558;BME280;12726;49.148;8.582;2023-03-08T12:30:16;98172.03;;;7.45;100.00
24558;BME280;12726;49.148;8.582;2023-03-08T12:33:04;98165.78;;;7.40;100.00
24558;BME280;12726;49.148;8.582;2023-03-08T12:35:56;98169.69;;;7.32;100.00
24558;BME280;12726;49.148;8.582;2023-03-08T12:38:43;98169.16;;;7.30;100.00
24558;BME280;12726;49.148;8.582;2023-03-08T12:41:31;98168.63;;;7.33;100.00
24558;BME280;12726;49.148;8.582;2023-03-08T12:44:26;98167.16;;;7.42;100.00
24558;BME280;12726;49.148;8.582;2023-03-08T12:47:19;98170.47;;;7.50;100.00
24558;BME280;12726;49.148;8.582;2023-03-08T12:50:06;98164.38;;;7.54;100.00
24558;BME280;12726;49.148;8.582;2023-03-08T12:52:52;98161.59;;;7.88;100.00
24558;BME280;12726;49.148;8.582;2023-03-08T12:55:39;98159.53;;;8.38;100.00
24558;BME280;12726;49.148;8.582;2023-03-08T12:58:24;98150.63;;;8.59;100.00
24558;BME280;12726;49.148;8.582;2023-03-08T13:01:27;98133.34;;;8.82;100.00
24558;BME280;12726;49.148;8.582;2023-03-08T13:04:26;98148.41;;;9.20;100.00
24558;BME280;12726;49.148;8.582;2023-03-08T13:07:21;98157.38;;;9.36;99.62
24558;BME280;12726;49.148;8.582;2023-03-08T13:10:18;98159.09;;;9.57;98.48
24558;BME280;12726;49.148;8.582;2023-03-08T13:13:22;98150.59;;;9.80;97.39
24558;BME280;12726;49.148;8.582;2023-03-08T13:16:19;98152.03;;;10.03;94.71
24558;BME280;12726;49.148;8.582;2023-03-08T13:19:21;98151.84;;;10.20;94.00
24558;BME280;12726;49.148;8.582;2023-03-08T13:22:13;98153.22;;;10.33;92.50
24558;BME280;12726;49.148;8.582;2023-03-08T13:25:05;98159.97;;;10.40;91.70
24558;BME280;12726;49.148;8.582;2023-03-08T13:27:57;98144.38;;;10.47;90.15
24558;BME280;12726;49.148;8.582;2023-03-08T13:30:48;98146.53;;;10.45;90.83
24558;BME280;12726;49.148;8.582;2023-03-08T13:33:36;98139.00;;;10.52;89.37
24558;BME280;12726;49.148;8.582;2023-03-08T13:36:25;98134.16;;;10.59;88.96
24558;BME280;12726;49.148;8.582;2023-03-08T13:39:18;98139.84;;;10.58;89.67
24558;BME280;12726;49.148;8.582;2023-03-08T13:42:09;98143.88;;;10.50;89.86
24558;BME280;12726;49.148;8.582;2023-03-08T13:45:06;98141.16;;;10.55;90.24
24558;BME280;12726;49.148;8.582;2023-03-08T13:47:53;98131.47;;;10.54;91.00
24558;BME280;12726;49.148;8.582;2023-03-08T13:50:42;98155.16;;;10.63;92.67
24558;BME280;12726;49.148;8.582;2023-03-08T13:53:31;98128.53;;;10.56;94.49
24558;BME280;12726;49.148;8.582;2023-03-08T13:56:22;98134.69;;;10.46;95.95
24558;BME280;12726;49.148;8.582;2023-03-08T13:59:16;98157.25;;;10.25;99.67
24558;BME280;12726;49.148;8.582;2023-03-08T14:02:18;98140.78;;;10.11;100.00
24558;BME280;12726;49.148;8.582;2023-03-08T14:05:15;98140.97;;;9.95;100.00
24558;BME280;12726;49.148;8.582;2023-03-08T14:08:02;98130.78;;;9.92;100.00
24558;BME280;12726;49.148;8.582;2023-03-08T14:10:51;98134.75;;;9.79;100.00
24558;BME280;12726;49.148;8.582;2023-03-08T14:13:38;98137.97;;;9.76;100.00
24558;BME280;12726;49.148;8.582;2023-03-08T14:16:28;98121.00;;;9.70;100.00
24558;BME280;12726;49.148;8.582;2023-03-08T14:19:21;98123.41;;;9.67;100.00
24558;BME280;12726;49.148;8.582;2023-03-08T14:22:10;98127.19;;;9.66;100.00
24558;BME280;12726;49.148;8.582;2023-03-08T14:24:58;98109.97;;;9.67;100.00
24558;BME280;12726;49.148;8.582;2023-03-08T14:27:47;98117.78;;;9.73;100.00
24558;BME280;12726;49.148;8.582;2023-03-08T14:30:32;98125.84;;;9.73;100.00
24558;BME280;12726;49.148;8.582;2023-03-08T14:33:19;98119.69;;;9.73;100.00
24558;BME280;12726;49.148;8.582;2023-03-08T14:36:05;98119.16;;;9.76;100.00
24558;BME280;12726;49.148;8.582;2023-03-08T14:38:52;98114.06;;;9.79;100.00
24558;BME280;12726;49.148;8.582;2023-03-08T14:41:37;98116.75;;;9.85;100.00
24558;BME280;12726;49.148;8.582;2023-03-08T14:44:26;98118.38;;;9.86;100.00
24558;BME280;12726;49.148;8.582;2023-03-08T14:47:20;98118.91;;;9.88;100.00
24558;BME280;12726;49.148;8.582;2023-03-08T14:50:17;98116.25;;;9.93;100.00
24558;BME280;12726;49.148;8.582;2023-03-08T14:53:22;98105.81;;;10.01;100.00
24558;BME280;12726;49.148;8.582;2023-03-08T14:56:11;98103.69;;;10.08;100.00
24558;BME280;12726;49.148;8.582;2023-03-08T14:58:58;98098.31;;;10.13;100.00